This is the latest recevied weather packets stored in our database for station/object KA9CBS. If no packets are shown the sender has not sent any weather packets the latest 10 day(s).
| Time | Temp. | Humidity | Pressure | Rain* | Wind** | Luminosity | Snow |
|---|---|---|---|---|---|---|---|
| 1777843369 | 20° C | 43% | 1013.7 hPa | 0 mm | - | 123 W/m² | - |
| 1777843061 | 20° C | 46% | 1013.8 hPa | 0 mm | - | 126 W/m² | - |
| 1777842758 | 20° C | 45% | 1013.9 hPa | 0 mm | - | 121 W/m² | - |
| 1777842453 | 20° C | 44% | 1014.1 hPa | 0 mm | - | 101 W/m² | - |
| 1777842151 | 20° C | 44% | 1014.1 hPa | 0 mm | - | 522 W/m² | - |
| 1777841846 | 19.44° C | 43% | 1014.5 hPa | 0 mm | - | 102 W/m² | - |
| 1777841542 | 19.44° C | 44% | 1014.3 hPa | 0 mm | - | 572 W/m² | - |
| 1777841239 | 19.44° C | 44% | 1014.6 hPa | 0 mm | - | 572 W/m² | - |
| 1777840937 | 20° C | 49% | 1014.7 hPa | 0 mm | - | 616 W/m² | - |
| 1777840634 | 19.44° C | 47% | 1014.8 hPa | 0 mm | - | 573 W/m² | - |
| 1777840331 | 19.44° C | 46% | 1014.9 hPa | 0 mm | - | 620 W/m² | - |
| 1777840028 | 20° C | 45% | 1015.3 hPa | 0 mm | - | 530 W/m² | - |
| 1777839726 | 19.44° C | 48% | 1015.4 hPa | 0 mm | - | 586 W/m² | - |
| 1777839424 | 19.44° C | 48% | 1015.1 hPa | 0 mm | - | 690 W/m² | - |
| 1777839121 | 19.44° C | 47% | 1015.5 hPa | 0 mm | - | 661 W/m² | - |
| 1777838817 | 18.89° C | 47% | 1015.8 hPa | 0 mm | - | 665 W/m² | - |
| 1777838513 | 18.89° C | 49% | 1016 hPa | 0 mm | - | 688 W/m² | - |
| 1777838205 | 18.89° C | 48% | 1016 hPa | 0 mm | - | 691 W/m² | - |
| 1777837902 | 19.44° C | 49% | 1016.3 hPa | 0 mm | - | 630 W/m² | - |
| 1777837599 | 18.89° C | 49% | 1016.3 hPa | 0 mm | - | 699 W/m² | - |
| 1777837294 | 19.44° C | 49% | 1016.5 hPa | 0 mm | - | 678 W/m² | - |
| 1777836991 | 18.89° C | 50% | 1016.6 hPa | 0 mm | - | 712 W/m² | - |
| 1777836686 | 18.89° C | 51% | 1016.9 hPa | 0 mm | - | 715 W/m² | - |
| 1777836382 | 18.89° C | 47% | 1017.2 hPa | 0 mm | - | 707 W/m² | - |
| 1777836078 | 18.89° C | 51% | 1017.2 hPa | 0 mm | - | 692 W/m² | - |
* Rain latest hour (hover to see other rain measurements)
** Current wind speed in m/s (hover to see current wind gust speed)